Time;durP1;ratioP1;P1;durP2;ratioP2;P2;SDS_P1;SDS_P2;PMS_P1;PMS_P2;Temp;Humidity;BMP_temperature;BMP_pressure;BME280_temperature;BME280_humidity;BME280_pressure;Samples;Min_cycle;Max_cycle;Signal;HPM_P1;HPM_P2
2024/01/05 00:02:26;;;;;;;12.07;2.92;;;;;;;7.98;100.00;99285.28;5026808;28;20140;-68
2024/01/05 00:04:53;;;;;;;8.80;3.15;;;;;;;8.00;100.00;99288.69;5028593;28;20100;-70
2024/01/05 00:07:23;;;;;;;14.27;3.58;;;;;;;7.96;100.00;99281.03;5007866;28;21388;-73
2024/01/05 00:09:51;;;;;;;6.32;2.40;;;;;;;8.00;100.00;99282.56;5014286;28;20391;-70
2024/01/05 00:12:21;;;;;;;14.38;2.88;;;;;;;8.00;100.00;99279.94;5023482;28;20042;-70
2024/01/05 00:14:49;;;;;;;9.30;2.42;;;;;;;7.99;100.00;99284.34;5028099;28;20125;-70
2024/01/05 00:17:18;;;;;;;11.70;2.80;;;;;;;7.96;100.00;99271.31;5004148;28;20056;-69
2024/01/05 00:19:46;;;;;;;8.85;2.97;;;;;;;8.02;100.00;99265.72;5025023;28;20049;-70
2024/01/05 00:22:14;;;;;;;12.20;2.90;;;;;;;8.02;100.00;99241.16;5028477;28;20048;-71
2024/01/05 00:24:42;;;;;;;7.78;2.65;;;;;;;8.14;100.00;99263.34;5026344;28;20037;-70
2024/01/05 00:27:10;;;;;;;17.90;2.92;;;;;;;7.99;100.00;99239.53;5023111;28;20061;-68
2024/01/05 00:29:42;;;;;;;12.55;3.50;;;;;;;8.05;100.00;99252.34;5018893;28;20053;-71
2024/01/05 00:32:11;;;;;;;10.20;2.92;;;;;;;7.99;100.00;99239.53;5023850;28;20555;-70
2024/01/05 00:34:42;;;;;;;9.35;2.78;;;;;;;8.00;100.00;99240.38;5011884;28;20053;-70
2024/01/05 00:37:11;;;;;;;11.00;3.13;;;;;;;7.96;100.00;99238.84;5018134;28;20045;-71
2024/01/05 00:39:39;;;;;;;12.45;3.55;;;;;;;7.90;100.00;99244.44;5040087;28;20038;-69
2024/01/05 00:42:07;;;;;;;14.40;3.42;;;;;;;7.82;100.00;99230.84;5024989;28;20052;-70
2024/01/05 00:44:37;;;;;;;14.13;4.28;;;;;;;7.82;100.00;99223.78;5026604;28;20044;-70
2024/01/05 00:47:07;;;;;;;16.67;4.40;;;;;;;7.70;100.00;99216.53;5039129;28;20437;-70
2024/01/05 00:49:38;;;;;;;20.23;4.30;;;;;;;7.63;100.00;99216.00;5041314;28;20056;-70
2024/01/05 00:52:07;;;;;;;15.88;4.05;;;;;;;7.64;100.00;99222.13;5030719;28;20057;-68
2024/01/05 00:54:36;;;;;;;15.52;4.60;;;;;;;7.58;100.00;99207.50;5026566;28;20042;-69
2024/01/05 00:57:05;;;;;;;17.63;4.55;;;;;;;7.59;100.00;99208.34;5039161;28;20038;-71
2024/01/05 00:59:37;;;;;;;18.40;4.85;;;;;;;7.54;100.00;99199.84;5040760;28;20069;-69
2024/01/05 01:02:07;;;;;;;16.48;4.60;;;;;;;7.46;100.00;99204.66;5030661;28;20041;-70
2024/01/05 01:04:35;;;;;;;12.37;4.50;;;;;;;7.35;100.00;99198.19;5014303;28;20107;-70
2024/01/05 01:07:03;;;;;;;14.15;4.22;;;;;;;7.28;100.00;99204.69;5019181;28;20132;-69
2024/01/05 01:09:32;;;;;;;13.23;4.40;;;;;;;7.23;100.00;99198.84;5050915;28;20060;-70
2024/01/05 01:12:00;;;;;;;13.60;5.20;;;;;;;7.26;100.00;99201.28;5033219;28;20045;-70
2024/01/05 01:14:30;;;;;;;12.95;4.43;;;;;;;7.19;100.00;99199.09;5046319;28;20049;-71
2024/01/05 01:16:57;;;;;;;14.25;4.10;;;;;;;7.16;100.00;99192.19;5053495;28;20049;-70
2024/01/05 01:19:27;;;;;;;13.63;4.55;;;;;;;7.13;100.00;99188.84;5026962;28;20052;-70
2024/01/05 01:21:54;;;;;;;13.70;4.25;;;;;;;7.12;100.00;99176.63;5034652;28;20046;-70
2024/01/05 01:24:25;;;;;;;14.02;4.78;;;;;;;7.11;100.00;99175.78;5030776;28;20495;-70
2024/01/05 01:26:54;;;;;;;13.32;4.65;;;;;;;7.11;100.00;99170.50;5046816;28;20498;-69
2024/01/05 01:29:24;;;;;;;14.52;4.47;;;;;;;7.13;100.00;99173.06;5024142;28;20445;-70
2024/01/05 01:31:53;;;;;;;11.95;4.05;;;;;;;7.11;100.00;99183.66;5031316;28;20036;-70
2024/01/05 01:34:21;;;;;;;12.52;4.57;;;;;;;7.10;100.00;99184.59;5045090;28;20037;-70
2024/01/05 01:36:51;;;;;;;12.32;4.20;;;;;;;7.03;100.00;99177.97;4998264;28;20061;-70
2024/01/05 01:39:23;;;;;;;13.75;4.18;;;;;;;7.04;100.00;99184.94;5026607;28;20046;-71
2024/01/05 01:41:52;;;;;;;12.02;4.10;;;;;;;7.04;100.00;99184.94;5030408;28;20057;-69
2024/01/05 01:44:21;;;;;;;12.85;3.75;;;;;;;7.05;100.00;99191.91;5032223;28;20049;-70
2024/01/05 01:46:52;;;;;;;10.90;3.65;;;;;;;7.06;100.00;99179.59;5032929;28;20133;-70
2024/01/05 01:49:21;;;;;;;14.38;4.13;;;;;;;7.06;100.00;99183.06;5038645;28;20049;-70
2024/01/05 01:51:52;;;;;;;13.02;3.88;;;;;;;7.08;100.00;99175.97;5026513;28;20560;-69
2024/01/05 01:54:20;;;;;;;10.93;3.63;;;;;;;7.08;100.00;99178.59;5046319;28;20417;-70
2024/01/05 01:56:51;;;;;;;;;;;;;;;7.10;100.00;99155.63;5034062;28;20042;-70
2024/01/05 01:59:20;;;;;;;17.50;4.60;;;;;;;7.10;100.00;99157.41;5020193;28;20037;-71
2024/01/05 02:01:48;;;;;;;14.30;4.32;;;;;;;7.07;100.00;99158.47;5032181;28;20050;-70
2024/01/05 02:04:20;;;;;;;14.05;4.15;;;;;;;7.07;100.00;99163.72;5024819;28;20156;-70
2024/01/05 02:06:48;;;;;;;13.95;4.45;;;;;;;7.03;100.00;99163.03;5023763;28;20052;-70
2024/01/05 02:09:19;;;;;;;13.75;4.70;;;;;;;6.95;100.00;99149.41;5037651;28;20033;-69
2024/01/05 02:11:49;;;;;;;15.98;4.47;;;;;;;6.95;100.00;99144.13;5031655;28;20057;-69
2024/01/05 02:14:17;;;;;;;12.32;4.57;;;;;;;7.04;100.00;99153.34;5050484;28;20052;-70
2024/01/05 02:16:47;;;;;;;16.23;5.10;;;;;;;7.01;100.00;99153.50;5026208;28;20109;-70
2024/01/05 02:19:15;;;;;;;10.55;4.50;;;;;;;7.04;100.00;99140.19;5040061;28;20049;-72
2024/01/05 02:21:50;;;;;;;13.25;4.47;;;;;;;7.02;100.00;99132.38;5035176;28;20045;-69
2024/01/05 02:24:20;;;;;;;16.15;4.57;;;;;;;7.05;100.00;99123.47;5003602;28;20049;-69
2024/01/05 02:26:49;;;;;;;13.15;4.10;;;;;;;7.05;100.00;99118.19;5032208;28;20116;-69
2024/01/05 02:29:21;;;;;;;11.90;4.47;;;;;;;6.97;100.00;99108.06;5019745;28;20041;-70
2024/01/05 02:31:50;;;;;;;17.02;4.72;;;;;;;6.93;100.00;99093.34;5030403;28;20033;-70
2024/01/05 02:34:19;;;;;;;11.85;4.00;;;;;;;6.93;100.00;99109.16;5033526;28;20042;-71
2024/01/05 02:36:48;;;;;;;13.20;4.10;;;;;;;6.90;100.00;99105.84;5014455;28;20058;-71
2024/01/05 02:39:19;;;;;;;15.13;4.30;;;;;;;6.85;100.00;99105.22;5017681;28;20414;-69
2024/01/05 02:41:47;;;;;;;13.55;4.45;;;;;;;6.71;100.00;99098.06;5038726;28;20058;-69
2024/01/05 02:44:15;;;;;;;13.05;4.47;;;;;;;6.76;100.00;99109.22;5030897;28;20145;-70
2024/01/05 02:46:46;;;;;;;13.82;5.30;;;;;;;6.76;100.00;99101.31;5026540;28;20038;-69
2024/01/05 02:49:14;;;;;;;15.27;5.00;;;;;;;6.64;100.00;99094.03;5017284;28;20061;-70
2024/01/05 02:51:42;;;;;;;15.50;5.93;;;;;;;6.67;100.00;99107.03;5029320;28;20573;-71
2024/01/05 02:54:13;;;;;;;15.32;5.03;;;;;;;6.67;100.00;99084.22;5030941;28;20041;-70
2024/01/05 02:56:45;;;;;;;14.07;5.20;;;;;;;6.68;100.00;99080.66;5031379;28;20116;-71
2024/01/05 02:59:12;;;;;;;16.27;4.60;;;;;;;6.72;100.00;99083.13;5021348;28;20046;-71
2024/01/05 03:01:41;;;;;;;12.93;5.50;;;;;;;6.73;100.00;99080.41;5034176;28;20064;-71
2024/01/05 03:04:11;;;;;;;17.77;5.45;;;;;;;6.70;100.00;99077.94;5050356;28;20053;-70
2024/01/05 03:06:42;;;;;;;13.32;4.47;;;;;;;6.63;100.00;99076.53;5045713;28;20057;-69
2024/01/05 03:09:14;;;;;;;10.30;4.50;;;;;;;6.55;100.00;99063.81;5022651;28;20046;-70
2024/01/05 03:11:42;;;;;;;12.67;4.47;;;;;;;6.62;100.00;99075.69;5024699;28;20549;-70
2024/01/05 03:14:17;;;;;;;18.70;4.90;;;;;;;6.61;100.00;99074.00;5026074;28;20073;-70
2024/01/05 03:16:45;;;;;;;14.25;4.18;;;;;;;6.63;100.00;99069.50;5050015;28;20861;-70
2024/01/05 03:19:13;;;;;;;17.23;4.43;;;;;;;6.65;100.00;99067.66;5022331;28;20042;-71
2024/01/05 03:21:42;;;;;;;9.35;3.58;;;;;;;6.64;100.00;99039.66;5006719;28;20484;-69
2024/01/05 03:24:10;;;;;;;9.27;3.67;;;;;;;6.83;100.00;99065.00;5013826;28;20044;-69
2024/01/05 03:26:38;;;;;;;10.48;3.83;;;;;;;6.85;100.00;99049.97;5034729;28;20050;-68
2024/01/05 03:29:06;;;;;;;13.05;4.13;;;;;;;6.90;100.00;99053.22;5005758;28;20049;-70
2024/01/05 03:31:36;;;;;;;12.75;3.47;;;;;;;6.91;100.00;99050.50;5050841;28;20052;-70
2024/01/05 03:34:05;;;;;;;;;;;;;;;6.90;100.00;99056.72;5029410;28;20049;-70
2024/01/05 03:36:35;;;;;;;12.90;3.60;;;;;;;6.91;100.00;99053.16;5049275;28;19996;-72
2024/01/05 03:39:04;;;;;;;13.38;3.70;;;;;;;6.80;100.00;99039.69;5040201;28;20049;-70
2024/01/05 03:41:34;;;;;;;14.60;3.78;;;;;;;6.88;100.00;99052.44;5034566;28;20047;-70
2024/01/05 03:44:02;;;;;;;12.68;3.65;;;;;;;6.86;100.00;99043.78;5016844;28;20148;-73
2024/01/05 03:46:31;;;;;;;12.80;3.45;;;;;;;6.81;100.00;99030.88;5028515;28;20038;-70
2024/01/05 03:49:01;;;;;;;12.45;3.60;;;;;;;6.91;100.00;99047.03;5035362;28;20064;-70
2024/01/05 03:51:29;;;;;;;9.80;3.53;;;;;;;6.96;100.00;99037.94;5043888;28;20063;-70
2024/01/05 03:53:57;;;;;;;12.27;4.00;;;;;;;6.99;100.00;99029.03;5029906;28;20191;-71
2024/01/05 03:56:26;;;;;;;12.13;3.80;;;;;;;7.02;100.00;99035.00;5033796;28;20064;-71
2024/01/05 03:58:55;;;;;;;11.43;3.90;;;;;;;6.98;100.00;99017.66;5016314;28;20055;-70
2024/01/05 04:01:23;;;;;;;11.73;3.60;;;;;;;7.10;100.00;99025.81;5038819;28;20132;-71
2024/01/05 04:03:54;;;;;;;14.93;3.40;;;;;;;7.10;100.00;99031.06;5029324;28;20049;-70
2024/01/05 04:06:25;;;;;;;16.48;4.00;;;;;;;7.09;100.00;99027.59;5045975;28;20057;-71
2024/01/05 04:08:55;;;;;;;10.05;3.53;;;;;;;7.09;100.00;99021.47;5024065;28;20363;-70
2024/01/05 04:11:25;;;;;;;15.15;3.55;;;;;;;7.03;100.00;99020.91;5042654;28;20048;-71
2024/01/05 04:13:55;;;;;;;8.40;2.97;;;;;;;7.03;100.00;99017.41;5030662;28;20045;-70
2024/01/05 04:16:24;;;;;;;11.55;3.42;;;;;;;7.01;100.00;99016.63;5027355;28;20451;-70
2024/01/05 04:18:52;;;;;;;8.07;3.15;;;;;;;6.93;100.00;99008.28;5021600;28;20049;-69
2024/01/05 04:21:28;;;;;;;11.15;3.55;;;;;;;6.96;100.00;99009.00;5022356;28;20399;-70
2024/01/05 04:23:58;;;;;;;17.88;4.10;;;;;;;6.93;100.00;99006.50;5013632;28;20053;-71
2024/01/05 04:26:27;;;;;;;11.67;4.03;;;;;;;6.88;100.00;99000.69;5046184;28;20140;-70
2024/01/05 04:28:56;;;;;;;13.85;4.72;;;;;;;6.83;100.00;98999.22;5020232;28;20141;-70
2024/01/05 04:31:25;;;;;;;10.48;4.45;;;;;;;6.82;100.00;99000.13;5028842;28;20091;-69
2024/01/05 04:33:57;;;;;;;20.03;5.30;;;;;;;6.78;100.00;99004.72;5030846;28;20165;-71
2024/01/05 04:36:26;;;;;;;16.70;4.88;;;;;;;6.74;100.00;98986.56;5025569;28;20142;-70
2024/01/05 04:38:59;;;;;;;13.18;4.88;;;;;;;6.81;100.00;98996.66;5041385;28;20138;-69
2024/01/05 04:41:30;;;;;;;13.50;5.30;;;;;;;6.72;100.00;98985.78;5026080;28;20650;-70
2024/01/05 04:44:00;;;;;;;16.02;5.32;;;;;;;6.69;100.00;99002.59;5030575;28;20544;-69
2024/01/05 04:46:30;;;;;;;15.63;5.05;;;;;;;6.62;100.00;98993.31;5031088;28;20048;-70
2024/01/05 04:48:58;;;;;;;15.93;4.57;;;;;;;6.57;100.00;98987.47;5027883;28;20060;-70
2024/01/05 04:51:27;;;;;;;11.98;4.57;;;;;;;6.52;100.00;98973.69;5022859;28;20146;-69
2024/01/05 04:54:03;;;;;;;13.43;4.45;;;;;;;6.55;100.00;98984.06;5035683;28;20092;-70
2024/01/05 04:56:32;;;;;;;13.55;5.18;;;;;;;6.48;100.00;98972.16;5029308;28;20498;-70
2024/01/05 04:59:00;;;;;;;12.07;4.82;;;;;;;6.46;100.00;98972.22;5025244;28;20054;-69
2024/01/05 05:01:30;;;;;;;10.70;5.03;;;;;;;6.48;100.00;98975.63;5027717;28;20060;-70
2024/01/05 05:03:59;;;;;;;15.00;5.05;;;;;;;6.46;100.00;98985.38;5031097;28;20151;-69
2024/01/05 05:06:27;;;;;;;17.13;5.40;;;;;;;6.43;100.00;98980.31;5024376;28;20072;-69
2024/01/05 05:08:57;;;;;;;13.40;4.65;;;;;;;6.47;100.00;98988.84;5028930;28;20060;-69
2024/01/05 05:11:28;;;;;;;13.43;3.78;;;;;;;6.47;100.00;98994.13;5018806;28;20406;-71
2024/01/05 05:13:56;;;;;;;11.40;3.85;;;;;;;6.46;100.00;98976.63;5029576;28;20140;-71
2024/01/05 05:16:24;;;;;;;12.70;3.45;;;;;;;6.52;100.00;98977.19;5009464;28;20041;-69
2024/01/05 05:18:54;;;;;;;14.60;3.72;;;;;;;6.63;100.00;98980.06;5016281;28;20629;-71
2024/01/05 05:21:23;;;;;;;15.17;4.00;;;;;;;6.75;100.00;98983.00;5023838;28;20042;-70
2024/01/05 05:23:51;;;;;;;14.38;3.78;;;;;;;6.76;100.00;98963.66;5044641;28;20045;-72
2024/01/05 05:26:20;;;;;;;9.38;3.25;;;;;;;6.89;100.00;98969.94;5025519;28;20033;-70
2024/01/05 05:28:53;;;;;;;12.00;3.15;;;;;;;6.88;100.00;98957.72;5023557;28;20534;-70
2024/01/05 05:31:21;;;;;;;11.02;3.22;;;;;;;6.95;100.00;98956.44;5023085;28;20049;-69
2024/01/05 05:33:50;;;;;;;10.85;3.17;;;;;;;6.99;100.00;98957.97;5039675;28;20348;-70
2024/01/05 05:36:18;;;;;;;15.75;4.00;;;;;;;7.05;100.00;98955.00;5038943;28;20041;-72
2024/01/05 05:38:46;;;;;;;9.25;3.05;;;;;;;7.07;100.00;98965.47;5027476;28;20446;-70
2024/01/05 05:41:15;;;;;;;10.13;2.90;;;;;;;7.09;100.00;98960.94;5019604;28;20046;-70
2024/01/05 05:43:46;;;;;;;11.50;2.67;;;;;;;7.20;100.00;98969.09;5045102;28;20069;-69
2024/01/05 05:46:15;;;;;;;;;;;;;;;7.22;100.00;98977.78;5038611;28;20054;-70
2024/01/05 05:48:44;;;;;;;10.13;2.58;;;;;;;7.25;100.00;98973.16;5029790;28;19933;-70
2024/01/05 05:51:12;;;;;;;10.95;3.28;;;;;;;7.27;100.00;98976.56;5026202;28;20064;-70
2024/01/05 05:53:40;;;;;;;7.95;2.70;;;;;;;7.33;100.00;98970.09;5034208;28;20045;-70
2024/01/05 05:56:11;;;;;;;10.13;3.20;;;;;;;7.40;100.00;98971.44;5029953;28;20777;-69
2024/01/05 05:58:39;;;;;;;10.77;2.97;;;;;;;7.43;100.00;98967.78;5033431;28;20046;-69
2024/01/05 06:01:06;;;;;;;12.60;3.33;;;;;;;7.32;100.00;98937.66;5021856;28;20463;-70
2024/01/05 06:03:38;;;;;;;8.45;2.95;;;;;;;7.44;100.00;98965.06;5012446;28;20049;-70
2024/01/05 06:06:16;;;;;;;10.43;2.95;;;;;;;7.42;100.00;98979.25;5031926;28;20051;-70
2024/01/05 06:08:44;;;;;;;11.20;2.72;;;;;;;7.43;100.00;98978.31;5032534;28;20152;-72
2024/01/05 06:11:15;;;;;;;9.90;2.58;;;;;;;7.42;100.00;98974.84;5032239;28;20069;-70
2024/01/05 06:13:45;;;;;;;10.15;3.13;;;;;;;7.50;100.00;98995.50;5029899;28;20041;-70
2024/01/05 06:16:13;;;;;;;10.05;3.10;;;;;;;7.52;100.00;98983.94;5031810;28;20130;-71
2024/01/05 06:18:44;;;;;;;5.93;2.65;;;;;;;7.52;100.00;98983.94;5032088;28;20048;-71
2024/01/05 06:21:12;;;;;;;10.65;2.90;;;;;;;7.60;100.00;98994.03;5016178;28;20032;-71
2024/01/05 06:23:40;;;;;;;10.95;3.25;;;;;;;7.55;100.00;98985.56;5027507;28;20065;-71
2024/01/05 06:26:10;;;;;;;9.45;2.80;;;;;;;7.59;100.00;98998.44;5018383;28;20048;-70
2024/01/05 06:28:38;;;;;;;10.60;3.15;;;;;;;7.62;100.00;99007.97;5037994;28;20561;-68
2024/01/05 06:31:06;;;;;;;9.63;2.70;;;;;;;7.61;100.00;99006.25;5015732;28;20764;-70
2024/01/05 06:33:34;;;;;;;9.95;3.03;;;;;;;7.61;100.00;99007.13;5030865;28;20191;-69
2024/01/05 06:36:06;;;;;;;6.80;2.58;;;;;;;7.61;100.00;99006.25;5040708;28;20045;-69
2024/01/05 06:38:37;;;;;;;11.20;2.90;;;;;;;7.67;100.00;98998.88;5034344;28;20045;-71
2024/01/05 06:41:05;;;;;;;7.05;2.45;;;;;;;7.70;100.00;99003.13;5023175;28;20049;-70
2024/01/05 06:43:36;;;;;;;12.38;2.63;;;;;;;7.70;100.00;99001.34;5042660;28;20587;-70
2024/01/05 06:46:05;;;;;;;8.50;3.42;;;;;;;7.70;100.00;98995.22;5031268;28;20584;-68
2024/01/05 06:48:37;;;;;;;8.00;2.65;;;;;;;7.69;100.00;99004.91;5030054;28;20080;-70
2024/01/05 06:51:08;;;;;;;7.28;2.40;;;;;;;7.64;100.00;98998.19;5038339;28;20501;-70
2024/01/05 06:53:36;;;;;;;7.90;2.50;;;;;;;7.64;100.00;99001.69;5012122;28;20949;-69
2024/01/05 06:56:06;;;;;;;8.52;2.35;;;;;;;7.62;100.00;98984.25;5030501;28;20053;-71
2024/01/05 06:58:34;;;;;;;10.02;3.08;;;;;;;7.55;100.00;98975.03;5031690;28;20088;-72
2024/01/05 07:01:03;;;;;;;13.50;3.10;;;;;;;7.50;100.00;98979.69;5020789;28;20056;-69
2024/01/05 07:03:32;;;;;;;11.15;2.90;;;;;;;7.48;100.00;98984.19;5048131;28;20124;-68
2024/01/05 07:06:02;;;;;;;13.85;2.92;;;;;;;7.35;100.00;98979.63;5037447;28;20037;-70
2024/01/05 07:08:31;;;;;;;10.43;3.15;;;;;;;7.39;100.00;98990.84;5034449;28;20088;-72
2024/01/05 07:10:59;;;;;;;10.85;3.15;;;;;;;7.47;100.00;98993.03;5042027;28;20045;-70
2024/01/05 07:13:29;;;;;;;12.68;3.20;;;;;;;7.55;100.00;98982.91;5020730;28;20064;-70
2024/01/05 07:15:59;;;;;;;9.73;2.90;;;;;;;7.60;100.00;98984.34;5055938;28;20041;-70
2024/01/05 07:18:29;;;;;;;10.80;3.08;;;;;;;7.60;100.00;98999.28;5036412;28;20435;-70
2024/01/05 07:21:08;;;;;;;8.15;2.85;;;;;;;7.40;100.00;98980.19;5023655;28;20077;-70
2024/01/05 07:23:40;;;;;;;9.50;3.28;;;;;;;7.45;100.00;98995.75;5034920;28;20108;-71
2024/01/05 07:26:09;;;;;;;9.55;2.88;;;;;;;7.31;100.00;98980.72;5043267;28;20050;-69
2024/01/05 07:28:37;;;;;;;11.05;3.42;;;;;;;7.29;100.00;98994.91;5012723;28;20132;-71
2024/01/05 07:31:09;;;;;;;7.10;3.08;;;;;;;7.28;100.00;98985.31;5030922;28;20077;-72
2024/01/05 07:33:49;;;;;;;9.25;3.20;;;;;;;7.32;100.00;98989.47;5043617;28;20037;-70
2024/01/05 07:36:18;;;;;;;8.85;3.25;;;;;;;7.31;100.00;98986.00;5033660;28;20037;-70
2024/01/05 07:38:50;;;;;;;8.55;3.00;;;;;;;7.28;100.00;98985.31;5002186;28;20052;-71
2024/01/05 07:41:19;;;;;;;8.98;2.80;;;;;;;7.18;100.00;98969.19;5019505;28;20038;-70
2024/01/05 07:43:47;;;;;;;10.32;3.50;;;;;;;7.23;100.00;98980.31;5040037;28;20053;-71
2024/01/05 07:46:16;;;;;;;8.82;3.08;;;;;;;7.16;100.00;98989.47;5019376;28;20414;-69
2024/01/05 07:48:44;;;;;;;7.50;2.85;;;;;;;7.11;100.00;98980.13;5021085;28;20050;-70
2024/01/05 07:51:21;;;;;;;6.82;3.50;;;;;;;7.07;100.00;98983.88;5014445;28;20053;-69
2024/01/05 07:53:51;;;;;;;10.57;3.15;;;;;;;7.04;100.00;98983.13;5015539;28;20486;-71
2024/01/05 07:56:22;;;;;;;10.93;3.07;;;;;;;7.04;100.00;98984.91;5013249;28;20106;-69
2024/01/05 07:58:54;;;;;;;12.30;3.22;;;;;;;6.98;100.00;98972.91;5023484;28;20464;-72
2024/01/05 08:01:24;;;;;;;7.15;2.95;;;;;;;7.05;100.00;98986.59;5020240;28;20045;-71
2024/01/05 08:03:53;;;;;;;9.20;3.38;;;;;;;7.10;100.00;98989.81;5048754;28;20072;-72
2024/01/05 08:06:23;;;;;;;10.07;3.20;;;;;;;7.19;100.00;98989.31;5030653;28;20068;-72
2024/01/05 08:08:52;;;;;;;9.15;3.30;;;;;;;7.28;100.00;98987.94;5020293;28;20510;-70
2024/01/05 08:11:21;;;;;;;14.27;3.20;;;;;;;7.33;100.00;98981.50;5041072;28;20409;-69
2024/01/05 08:13:52;;;;;;;11.40;3.35;;;;;;;7.44;100.00;98980.03;5027775;28;20132;-71
2024/01/05 08:16:24;;;;;;;6.97;2.92;;;;;;;7.53;100.00;98987.44;5027074;28;20045;-70
2024/01/05 08:18:53;;;;;;;9.05;3.40;;;;;;;7.54;100.00;98989.13;5045980;28;20128;-70
2024/01/05 08:21:22;;;;;;;9.60;3.20;;;;;;;7.57;100.00;98986.28;5016056;28;20765;-70
2024/01/05 08:23:53;;;;;;;12.50;3.47;;;;;;;7.54;100.00;98984.72;5026235;28;20096;-69
2024/01/05 08:26:24;;;;;;;;;;;;;;;7.49;100.00;98970.09;5021126;28;20072;-71
2024/01/05 08:28:52;;;;;;;11.88;3.70;;;;;;;7.46;100.00;98970.25;5046612;28;20306;-70
2024/01/05 08:31:22;;;;;;;8.82;3.10;;;;;;;7.38;100.00;98966.28;5017616;28;20160;-70
2024/01/05 08:33:53;;;;;;;10.00;3.78;;;;;;;7.34;100.00;98970.03;5013237;28;20589;-71
2024/01/05 08:36:22;;;;;;;11.98;3.60;;;;;;;7.33;100.00;98965.69;5030677;28;20465;-71
2024/01/05 08:38:55;;;;;;;9.45;3.20;;;;;;;7.27;100.00;98955.50;5028392;28;20084;-70
2024/01/05 08:41:26;;;;;;;9.32;3.78;;;;;;;7.27;100.00;98950.22;5017937;28;20486;-70
2024/01/05 08:43:59;;;;;;;7.93;3.15;;;;;;;7.40;100.00;98964.38;5027419;28;20049;-71
2024/01/05 08:46:28;;;;;;;9.98;4.05;;;;;;;7.47;100.00;98958.78;5026425;28;20053;-70
2024/01/05 08:48:57;;;;;;;7.70;3.30;;;;;;;7.47;100.00;98949.09;5024457;28;20049;-70
2024/01/05 08:51:28;;;;;;;7.93;3.05;;;;;;;7.49;100.00;98965.66;5017827;28;20109;-72
2024/01/05 08:53:59;;;;;;;11.50;3.00;;;;;;;7.46;100.00;98951.81;5023264;28;20617;-70
2024/01/05 08:56:29;;;;;;;9.10;3.33;;;;;;;7.43;100.00;98941.44;5022959;28;20407;-69
2024/01/05 08:58:59;;;;;;;9.50;3.67;;;;;;;7.42;100.00;98945.03;5024926;28;20049;-71
2024/01/05 09:01:32;;;;;;;8.57;3.35;;;;;;;7.39;100.00;98951.34;5017003;28;20156;-70
2024/01/05 09:04:10;;;;;;;9.45;3.00;;;;;;;7.40;100.00;98951.22;5023282;28;20057;-68
2024/01/05 09:06:39;;;;;;;9.65;4.10;;;;;;;7.39;100.00;98944.28;5025658;28;20504;-71
2024/01/05 09:09:10;;;;;;;7.05;3.40;;;;;;;7.38;100.00;98939.97;5021069;28;20045;-71
2024/01/05 09:11:40;;;;;;;11.40;3.65;;;;;;;7.43;100.00;98941.44;5019209;28;20704;-70
2024/01/05 09:14:10;;;;;;;9.90;3.72;;;;;;;7.46;100.00;98938.66;5024245;28;20053;-70
2024/01/05 09:16:38;;;;;;;10.63;3.72;;;;;;;7.53;100.00;98953.19;5038948;28;20096;-72
2024/01/05 09:19:08;;;;;;;8.73;3.28;;;;;;;7.60;100.00;98955.34;5053373;28;20060;-70
2024/01/05 09:21:41;;;;;;;11.65;4.03;;;;;;;7.66;100.00;98962.06;5018701;28;20092;-70
2024/01/05 09:24:12;;;;;;;10.40;3.65;;;;;;;7.66;100.00;98954.16;5028550;28;20464;-71
2024/01/05 09:26:42;;;;;;;11.70;4.07;;;;;;;7.69;100.00;98962.75;5028553;28;20091;-71
2024/01/05 09:29:09;;;;;;;9.60;3.95;;;;;;;7.65;100.00;98963.00;5032274;28;20046;-71
2024/01/05 09:31:40;;;;;;;14.73;4.70;;;;;;;7.69;100.00;98970.66;5021348;28;20049;-72
2024/01/05 09:34:11;;;;;;;9.15;3.65;;;;;;;7.71;100.00;98965.28;5015625;28;20432;-70
2024/01/05 09:36:41;;;;;;;12.27;3.83;;;;;;;7.75;100.00;98977.34;5024227;28;20100;-70
2024/01/05 09:39:17;;;;;;;9.13;3.90;;;;;;;7.72;100.00;98970.44;5026956;28;20049;-68
2024/01/05 09:41:47;;;;;;;16.20;4.05;;;;;;;7.74;100.00;98975.63;5021886;28;20527;-71
2024/01/05 09:44:17;;;;;;;9.85;3.83;;;;;;;7.76;100.00;98984.31;5036423;28;20045;-71
2024/01/05 09:46:45;;;;;;;12.32;3.78;;;;;;;7.59;100.00;98942.28;5030669;28;20037;-72
2024/01/05 09:49:16;;;;;;;9.38;3.85;;;;;;;7.86;100.00;98989.91;5026923;28;20541;-72
2024/01/05 09:51:48;;;;;;;13.43;3.90;;;;;;;7.90;100.00;98994.88;5019815;28;20108;-70
2024/01/05 09:54:17;;;;;;;9.27;4.03;;;;;;;7.92;100.00;99005.34;5029778;28;20106;-73
2024/01/05 09:56:47;;;;;;;11.32;3.55;;;;;;;7.90;100.00;99001.94;5032621;28;20065;-72
2024/01/05 09:59:20;;;;;;;16.23;4.67;;;;;;;7.83;100.00;98998.84;5028788;28;20107;-71
2024/01/05 10:01:49;;;;;;;11.00;4.38;;;;;;;7.82;100.00;98999.78;5000112;28;20064;-70
2024/01/05 10:04:23;;;;;;;12.00;4.70;;;;;;;7.77;100.00;99000.97;5033730;28;20517;-73
2024/01/05 10:07:03;;;;;;;11.02;3.70;;;;;;;7.77;100.00;99001.81;5042841;28;20077;-71
2024/01/05 10:09:33;;;;;;;11.63;4.28;;;;;;;7.81;100.00;98999.84;5014378;28;20049;-70
2024/01/05 10:12:01;;;;;;;6.80;3.00;;;;;;;7.88;100.00;98996.75;5004459;28;20050;-72
2024/01/05 10:14:29;;;;;;;8.27;3.55;;;;;;;8.01;100.00;98997.78;5012554;28;20059;-70
2024/01/05 10:17:09;;;;;;;11.50;4.07;;;;;;;8.03;100.00;98977.41;5027118;28;20061;-71
2024/01/05 10:19:39;;;;;;;8.55;3.63;;;;;;;8.20;100.00;98994.03;5008577;28;20509;-70
2024/01/05 10:22:16;;;;;;;10.60;2.77;;;;;;;8.30;100.00;98989.91;5037521;28;20046;-70
2024/01/05 10:24:46;;;;;;;7.30;2.70;;;;;;;8.38;100.00;98977.13;5049913;28;20468;-70
2024/01/05 10:27:15;;;;;;;6.97;2.30;;;;;;;8.43;100.00;98975.94;5019186;28;20106;-71
2024/01/05 10:29:45;;;;;;;5.68;2.60;;;;;;;8.48;100.00;98967.75;5029802;28;20053;-69
2024/01/05 10:32:15;;;;;;;6.50;2.35;;;;;;;8.63;100.00;98976.50;5040727;28;20418;-71
2024/01/05 10:34:45;;;;;;;10.02;2.40;;;;;;;8.72;100.00;98965.38;5034808;28;20048;-74
2024/01/05 10:37:15;;;;;;;6.03;2.30;;;;;;;8.76;100.00;98965.09;5028570;28;20037;-73
2024/01/05 10:39:52;;;;;;;8.63;2.13;;;;;;;8.84;100.00;98972.50;5038439;28;20041;-72
2024/01/05 10:42:22;;;;;;;5.97;2.25;;;;;;;8.94;100.00;98975.44;5048693;28;20046;-71
2024/01/05 10:44:53;;;;;;;7.78;2.95;;;;;;;9.02;100.00;98973.16;5039480;28;20050;-71
2024/01/05 10:47:23;;;;;;;8.50;2.30;;;;;;;9.03;100.00;98956.38;5052987;28;20065;-71
2024/01/05 10:49:55;;;;;;;7.43;1.70;;;;;;;9.18;100.00;98971.25;5032152;28;20159;-72
2024/01/05 10:52:27;;;;;;;4.70;2.00;;;;;;;9.22;100.00;98966.63;5026219;28;20069;-73
2024/01/05 10:55:05;;;;;;;7.32;2.17;;;;;;;9.33;100.00;98961.47;5026028;28;20054;-73
2024/01/05 10:57:36;;;;;;;9.60;2.00;;;;;;;9.23;100.00;98939.25;5011552;28;20453;-73
2024/01/05 11:00:07;;;;;;;7.25;1.95;;;;;;;9.41;100.00;98959.22;5042918;28;20562;-72
2024/01/05 11:02:40;;;;;;;6.30;1.88;;;;;;;9.45;100.00;98955.38;5019022;28;20604;-72
2024/01/05 11:05:15;;;;;;;9.60;2.38;;;;;;;9.55;100.00;98966.22;5033624;28;20041;-72
2024/01/05 11:07:45;;;;;;;4.70;1.90;;;;;;;9.58;100.00;98966.03;5034807;28;20042;-71
2024/01/05 11:10:28;;;;;;;5.43;2.15;;;;;;;9.54;100.00;98954.81;5030793;28;20164;-72
2024/01/05 11:13:03;;;;;;;;;;;;;;;9.61;100.00;98960.53;5020263;28;20056;-72
2024/01/05 11:15:43;;;;;;;20.80;9.65;;;;;;;9.65;100.00;98951.44;5027259;28;20404;-73
2024/01/05 11:18:50;;;;;;;12.25;6.22;;;;;;;9.72;100.00;98950.09;5043885;28;20041;-72
2024/01/05 11:21:31;;;;;;;9.10;4.53;;;;;;;9.77;100.00;98948.84;5017255;28;20099;-72
2024/01/05 11:23:59;;;;;;;8.98;3.78;;;;;;;9.83;100.00;98955.53;5042762;28;20119;-72
2024/01/05 11:26:36;;;;;;;8.05;2.90;;;;;;;9.81;100.00;98939.75;5027192;28;20571;-72
2024/01/05 11:29:04;;;;;;;5.68;2.85;;;;;;;9.81;100.00;98950.34;5041054;28;20055;-71
2024/01/05 11:31:52;;;;;;;10.57;5.70;;;;;;;9.79;100.00;98946.94;5026510;28;20433;-71
2024/01/05 11:34:32;;;;;;;10.75;4.70;;;;;;;9.84;100.00;98954.56;5005067;28;20044;-71
2024/01/05 11:37:05;;;;;;;13.35;6.03;;;;;;;9.88;100.00;98945.50;5032521;28;20064;-71
2024/01/05 11:39:39;;;;;;;8.88;3.67;;;;;;;9.74;100.00;98920.00;5024848;28;20046;-71
2024/01/05 11:42:11;;;;;;;9.00;3.40;;;;;;;9.84;100.00;98928.97;5031029;28;20053;-72
2024/01/05 11:44:42;;;;;;;11.27;3.65;;;;;;;9.85;100.00;98929.84;5045916;28;20049;-71